createdAt,value
2017-09-16T00:01:36.679Z,4.00
2017-09-16T00:04:04.995Z,7.90
2017-09-16T00:06:34.079Z,5.27
2017-09-16T00:09:02.377Z,12.30
2017-09-16T00:11:30.670Z,6.20
2017-09-16T00:13:58.973Z,4.17
2017-09-16T00:16:27.300Z,6.93
2017-09-16T00:18:56.390Z,7.53
2017-09-16T00:21:25.441Z,6.00
2017-09-16T00:23:53.797Z,7.47
2017-09-16T00:26:22.110Z,5.77
2017-09-16T00:28:50.430Z,7.53
2017-09-16T00:31:19.493Z,5.80
2017-09-16T00:33:47.794Z,5.00
2017-09-16T00:36:16.865Z,6.30
2017-09-16T00:38:45.165Z,11.13
2017-09-16T00:41:14.263Z,7.20
2017-09-16T00:43:43.323Z,5.53
2017-09-16T00:46:11.636Z,19.73
2017-09-16T00:48:40.711Z,7.97
2017-09-16T00:51:09.044Z,6.03
2017-09-16T00:53:37.370Z,6.20
2017-09-16T00:56:06.459Z,7.13
2017-09-16T00:58:34.783Z,7.77
2017-09-16T01:01:03.102Z,9.37
2017-09-16T01:03:31.432Z,6.70
2017-09-16T01:05:59.732Z,5.53
2017-09-16T01:08:28.100Z,5.97
2017-09-16T01:10:56.397Z,10.53
2017-09-16T01:13:24.738Z,5.57
2017-09-16T01:15:53.030Z,8.20
2017-09-16T01:18:21.363Z,6.20
2017-09-16T01:20:50.428Z,6.13
2017-09-16T01:23:18.712Z,5.30
2017-09-16T01:25:47.022Z,7.43
2017-09-16T01:28:16.078Z,5.77
2017-09-16T01:30:44.406Z,6.90
2017-09-16T01:33:13.457Z,5.40
2017-09-16T01:35:41.773Z,5.00
2017-09-16T01:38:10.847Z,5.27
2017-09-16T01:40:39.951Z,6.60
2017-09-16T01:43:09.015Z,8.50
2017-09-16T01:45:37.301Z,6.50
2017-09-16T01:48:05.603Z,3.70
2017-09-16T01:50:34.660Z,6.20
2017-09-16T01:53:02.970Z,5.10
2017-09-16T01:55:32.044Z,5.80
2017-09-16T01:58:00.358Z,5.07
2017-09-16T02:00:29.418Z,3.77
2017-09-16T02:02:57.740Z,4.13
2017-09-16T02:05:26.046Z,7.40
2017-09-16T02:07:54.373Z,4.77
2017-09-16T02:10:23.438Z,8.03
2017-09-16T02:12:51.729Z,5.50
2017-09-16T02:15:20.050Z,4.00
2017-09-16T02:17:48.357Z,4.37
2017-09-16T02:20:16.660Z,5.00
2017-09-16T02:22:44.964Z,9.07
2017-09-16T02:25:14.030Z,5.20
2017-09-16T02:27:42.321Z,5.50
2017-09-16T02:30:11.398Z,4.70
2017-09-16T02:32:39.707Z,5.87
2017-09-16T02:35:08.760Z,7.97
2017-09-16T02:37:37.098Z,4.87
2017-09-16T02:40:05.390Z,4.97
2017-09-16T02:42:33.699Z,6.90
2017-09-16T02:45:02.007Z,8.17
2017-09-16T02:47:31.081Z,4.77
2017-09-16T02:49:59.396Z,5.10
2017-09-16T02:52:27.738Z,6.50
2017-09-16T02:54:56.829Z,4.50
2017-09-16T02:57:25.131Z,4.43
2017-09-16T02:59:54.211Z,6.37
2017-09-16T03:02:22.497Z,7.80
2017-09-16T03:04:51.565Z,9.47
2017-09-16T03:07:19.872Z,5.60
2017-09-16T03:09:48.942Z,7.83
2017-09-16T03:12:17.237Z,4.60
2017-09-16T03:14:46.315Z,5.60
2017-09-16T03:17:14.613Z,4.40
2017-09-16T03:19:43.724Z,4.00
2017-09-16T03:22:12.022Z,4.17
2017-09-16T03:24:40.318Z,7.53
2017-09-16T03:27:08.639Z,4.50
2017-09-16T03:29:37.710Z,7.93
2017-09-16T03:32:06.020Z,4.87
2017-09-16T03:34:35.082Z,6.10
2017-09-16T03:37:03.420Z,6.50
2017-09-16T03:39:31.722Z,6.93
2017-09-16T03:42:00.050Z,4.03
2017-09-16T03:44:28.347Z,4.53
2017-09-16T03:46:56.727Z,4.53
2017-09-16T03:49:25.036Z,5.37
2017-09-16T03:51:53.326Z,4.50
2017-09-16T03:54:21.626Z,5.47
2017-09-16T03:56:50.681Z,9.13
2017-09-16T03:59:18.990Z,4.57
2017-09-16T04:02:05.839Z,4.50
2017-09-16T04:04:34.162Z,4.10
2017-09-16T04:07:02.459Z,4.63
2017-09-16T04:09:31.531Z,4.13
2017-09-16T04:11:59.969Z,3.80
2017-09-16T04:14:28.270Z,4.70
2017-09-16T04:16:56.580Z,4.23
2017-09-16T04:19:25.652Z,6.70
2017-09-16T04:21:53.962Z,4.73
2017-09-16T04:24:23.026Z,3.83
2017-09-16T04:26:51.354Z,4.70
2017-09-16T04:29:19.650Z,13.77
2017-09-16T04:31:47.959Z,5.37
2017-09-16T04:34:16.263Z,7.33
2017-09-16T04:36:45.336Z,5.40
2017-09-16T04:39:13.650Z,6.27
2017-09-16T04:41:41.962Z,6.27
2017-09-16T04:44:10.309Z,6.40
2017-09-16T04:46:38.615Z,7.47
2017-09-16T04:49:06.935Z,5.27
2017-09-16T04:51:35.233Z,6.83
2017-09-16T04:54:04.306Z,6.00
2017-09-16T04:56:32.611Z,5.73
2017-09-16T04:59:00.910Z,6.27
2017-09-16T05:01:29.217Z,6.00
2017-09-16T05:03:57.528Z,10.73
2017-09-16T05:06:26.624Z,6.30
2017-09-16T05:08:55.686Z,6.03
2017-09-16T05:11:24.021Z,8.00
2017-09-16T05:13:52.314Z,7.57
2017-09-16T05:16:20.647Z,5.63
2017-09-16T05:18:49.706Z,5.03
2017-09-16T05:21:18.057Z,6.40
2017-09-16T05:23:46.399Z,5.10
2017-09-16T05:26:15.462Z,5.20
2017-09-16T05:28:43.771Z,5.30
2017-09-16T05:31:12.057Z,3.83
2017-09-16T05:33:41.158Z,8.63
2017-09-16T05:36:09.462Z,4.60
2017-09-16T05:38:37.761Z,4.83
2017-09-16T05:41:06.074Z,5.83
2017-09-16T05:43:35.208Z,5.07
2017-09-16T05:46:03.510Z,4.77
2017-09-16T05:48:31.828Z,4.57
2017-09-16T05:51:00.898Z,4.70
2017-09-16T05:53:29.193Z,4.70
2017-09-16T05:55:58.276Z,4.43
2017-09-16T05:58:26.602Z,3.83
2017-09-16T06:00:54.905Z,4.07
2017-09-16T06:03:23.198Z,4.87
2017-09-16T06:05:51.505Z,4.60
2017-09-16T06:08:20.570Z,4.40
2017-09-16T06:10:48.903Z,4.70
2017-09-16T06:13:17.203Z,4.37
2017-09-16T06:15:45.501Z,4.73
2017-09-16T06:18:13.811Z,6.60
2017-09-16T06:20:42.877Z,5.30
2017-09-16T06:23:11.189Z,4.70
2017-09-16T06:25:40.347Z,5.90
2017-09-16T06:28:08.659Z,6.93
2017-09-16T06:30:40.458Z,6.20
2017-09-16T06:33:08.792Z,6.90
2017-09-16T06:35:37.849Z,5.33
2017-09-16T06:38:06.146Z,15.20
2017-09-16T06:40:35.369Z,6.80
2017-09-16T06:43:04.438Z,5.97
2017-09-16T06:45:32.741Z,6.00
2017-09-16T06:48:01.797Z,4.57
2017-09-16T06:50:30.098Z,4.27
2017-09-16T06:52:59.163Z,5.17
2017-09-16T06:55:27.467Z,7.60
2017-09-16T06:57:56.524Z,4.70
2017-09-16T07:00:24.845Z,6.07
2017-09-16T07:03:21.200Z,7.80
2017-09-16T07:05:49.516Z,4.17
2017-09-16T07:08:17.821Z,4.40
2017-09-16T07:10:46.121Z,5.53
2017-09-16T07:13:14.433Z,8.80
2017-09-16T07:15:42.734Z,8.47
2017-09-16T07:18:11.050Z,5.97
2017-09-16T07:20:40.114Z,4.63
2017-09-16T07:23:08.428Z,6.80
2017-09-16T07:25:36.734Z,4.90
2017-09-16T07:28:05.043Z,8.00
2017-09-16T07:30:33.585Z,10.30
2017-09-16T07:33:01.923Z,5.23
2017-09-16T07:35:30.990Z,9.73
2017-09-16T07:37:59.294Z,5.97
2017-09-16T07:40:28.404Z,7.40
2017-09-16T07:42:57.465Z,5.53
2017-09-16T07:45:25.785Z,5.10
2017-09-16T07:47:54.086Z,10.00
2017-09-16T07:50:22.392Z,5.93
2017-09-16T07:52:50.702Z,5.00
2017-09-16T07:55:19.774Z,7.87
2017-09-16T07:57:48.070Z,9.77
2017-09-16T08:00:17.169Z,9.63
2017-09-16T08:02:46.235Z,8.60
2017-09-16T08:05:14.538Z,12.27
2017-09-16T08:07:43.622Z,11.30
2017-09-16T08:10:11.927Z,12.63
2017-09-16T08:12:40.243Z,9.30
2017-09-16T08:15:08.567Z,7.80
2017-09-16T08:17:37.638Z,13.83
2017-09-16T08:20:05.928Z,7.37
2017-09-16T08:22:34.234Z,5.20
2017-09-16T08:25:02.534Z,12.10
2017-09-16T08:27:30.866Z,6.80
2017-09-16T08:29:59.939Z,13.07
2017-09-16T08:32:28.237Z,7.57
2017-09-16T08:34:57.322Z,6.43
2017-09-16T08:37:25.625Z,9.70
2017-09-16T08:39:53.947Z,5.47
2017-09-16T08:42:22.270Z,7.10
2017-09-16T08:44:51.350Z,6.80
2017-09-16T08:47:19.651Z,10.47
2017-09-16T08:49:47.961Z,12.90
2017-09-16T08:52:16.282Z,7.50
2017-09-16T08:54:44.594Z,6.27
2017-09-16T08:57:12.897Z,5.90
2017-09-16T08:59:41.259Z,6.90
2017-09-16T09:02:09.560Z,11.17
2017-09-16T09:04:37.870Z,14.63
2017-09-16T09:07:06.186Z,7.27
2017-09-16T09:09:34.505Z,7.20
2017-09-16T09:12:02.846Z,10.53
2017-09-16T09:14:31.141Z,7.17
2017-09-16T09:16:59.458Z,7.10
2017-09-16T09:19:27.763Z,5.70
2017-09-16T09:21:56.080Z,6.77
2017-09-16T09:24:24.378Z,7.17
2017-09-16T09:26:52.701Z,4.33
2017-09-16T09:29:20.998Z,3.27
2017-09-16T09:31:49.305Z,5.67
2017-09-16T09:34:17.610Z,5.73
2017-09-16T09:36:46.679Z,2.20
2017-09-16T09:39:14.986Z,6.73
2017-09-16T09:41:44.045Z,3.10
2017-09-16T09:44:12.349Z,1.63
2017-09-16T09:46:41.432Z,3.00
2017-09-16T09:49:09.761Z,1.60
2017-09-16T09:51:38.061Z,2.83
2017-09-16T09:54:07.117Z,2.77
2017-09-16T09:56:35.421Z,2.67
2017-09-16T09:59:03.733Z,5.27
2017-09-16T10:01:32.062Z,2.30
2017-09-16T10:04:00.366Z,3.17
2017-09-16T10:06:28.677Z,5.93
2017-09-16T10:08:57.742Z,3.10
2017-09-16T10:11:26.054Z,4.30
2017-09-16T10:13:55.126Z,4.20
2017-09-16T10:16:23.481Z,3.83
2017-09-16T10:18:51.794Z,3.53
2017-09-16T10:21:20.870Z,7.07
2017-09-16T10:23:49.195Z,3.33
2017-09-16T10:26:17.516Z,4.23
2017-09-16T10:28:45.826Z,3.13
2017-09-16T10:31:14.890Z,2.27
2017-09-16T10:33:43.201Z,2.33
2017-09-16T10:36:12.277Z,5.80
2017-09-16T10:38:40.590Z,8.30
2017-09-16T10:41:08.899Z,2.47
2017-09-16T10:43:37.205Z,4.83
2017-09-16T10:46:05.517Z,5.80
2017-09-16T10:48:34.610Z,3.20
2017-09-16T10:51:03.677Z,3.47
2017-09-16T10:53:31.974Z,3.13
2017-09-16T10:56:01.057Z,3.57
2017-09-16T10:58:29.353Z,3.37
2017-09-16T11:00:58.434Z,3.63
2017-09-16T11:03:27.502Z,3.43
2017-09-16T11:05:55.808Z,2.63
2017-09-16T11:08:24.883Z,4.40
2017-09-16T11:10:53.209Z,5.10
2017-09-16T11:13:21.508Z,2.87
2017-09-16T11:15:49.838Z,3.43
2017-09-16T11:18:18.906Z,6.13
2017-09-16T11:20:47.202Z,3.53
2017-09-16T11:23:15.514Z,5.83
2017-09-16T11:25:43.818Z,3.47
2017-09-16T11:28:12.162Z,1.90
2017-09-16T11:30:40.457Z,5.70
2017-09-16T11:33:08.765Z,5.77
2017-09-16T11:35:37.062Z,4.03
2017-09-16T11:38:05.387Z,3.17
2017-09-16T11:40:33.685Z,2.27
2017-09-16T11:43:01.996Z,4.07
2017-09-16T11:45:31.084Z,4.60
2017-09-16T11:48:00.213Z,4.27
2017-09-16T11:50:28.539Z,3.77
2017-09-16T11:52:56.934Z,5.27
2017-09-16T11:55:25.256Z,4.13
2017-09-16T11:57:53.558Z,5.23
2017-09-16T12:00:21.890Z,3.70
2017-09-16T12:02:50.953Z,2.57
2017-09-16T12:05:19.271Z,5.83
2017-09-16T12:07:47.583Z,1.80
2017-09-16T12:10:15.913Z,3.13
2017-09-16T12:12:44.986Z,4.37
2017-09-16T12:15:13.610Z,3.70
2017-09-16T12:17:41.911Z,2.20
2017-09-16T12:20:10.248Z,6.73
2017-09-16T12:22:39.332Z,3.20
2017-09-16T12:25:07.638Z,2.17
2017-09-16T12:27:35.945Z,2.07
2017-09-16T12:30:04.253Z,5.60
2017-09-16T12:32:32.558Z,4.07
2017-09-16T12:35:01.625Z,2.77
2017-09-16T12:37:29.937Z,2.73
2017-09-16T12:39:58.251Z,3.20
2017-09-16T12:42:26.597Z,3.87
2017-09-16T12:44:54.903Z,1.10
2017-09-16T12:47:23.204Z,6.03
2017-09-16T12:49:51.527Z,2.73
2017-09-16T12:52:19.821Z,2.10
2017-09-16T12:54:48.129Z,3.40
2017-09-16T12:57:16.418Z,2.93
2017-09-16T12:59:44.752Z,3.73
2017-09-16T13:02:13.057Z,3.87
2017-09-16T13:04:41.362Z,1.27
2017-09-16T13:07:09.667Z,2.63
2017-09-16T13:09:37.974Z,3.40
2017-09-16T13:12:06.299Z,2.80
2017-09-16T13:14:35.364Z,3.20
2017-09-16T13:17:03.692Z,7.33
2017-09-16T13:19:31.990Z,2.33
2017-09-16T13:22:00.318Z,2.33
2017-09-16T13:24:29.395Z,5.07
2017-09-16T13:26:57.694Z,4.83
2017-09-16T13:29:26.768Z,3.90
2017-09-16T13:31:55.100Z,6.07
2017-09-16T13:34:23.414Z,5.80
2017-09-16T13:36:51.714Z,4.07
2017-09-16T13:39:20.026Z,2.90
2017-09-16T13:41:48.322Z,6.93
2017-09-16T13:44:16.626Z,5.40
2017-09-16T13:46:44.930Z,3.73
2017-09-16T13:49:14.015Z,4.37
2017-09-16T13:51:42.338Z,1.63
2017-09-16T13:54:10.645Z,3.77
2017-09-16T13:56:38.945Z,4.37
2017-09-16T13:59:07.238Z,4.37
2017-09-16T14:01:36.322Z,5.33
2017-09-16T14:04:04.626Z,6.33
2017-09-16T14:06:32.933Z,3.33
2017-09-16T14:09:01.234Z,5.20
2017-09-16T14:11:29.549Z,4.07
2017-09-16T14:13:58.617Z,6.30
2017-09-16T14:16:26.928Z,2.50
2017-09-16T14:18:55.240Z,3.57
2017-09-16T14:21:23.537Z,2.53
2017-09-16T14:23:51.852Z,3.00
2017-09-16T14:26:20.154Z,4.33
2017-09-16T14:28:48.738Z,2.60
2017-09-16T14:31:17.039Z,2.10
2017-09-16T14:33:45.372Z,3.70
2017-09-16T14:36:13.678Z,5.40
2017-09-16T14:38:41.973Z,4.43
2017-09-16T14:41:10.290Z,5.37
2017-09-16T14:43:39.361Z,4.70
2017-09-16T14:46:07.667Z,3.00
2017-09-16T14:48:36.726Z,3.20
2017-09-16T14:51:05.045Z,4.10
2017-09-16T14:53:34.111Z,3.77
2017-09-16T14:56:02.474Z,4.30
2017-09-16T14:58:30.778Z,4.83
2017-09-16T15:00:59.854Z,3.17
2017-09-16T15:03:28.157Z,3.80
2017-09-16T15:05:57.222Z,6.90
2017-09-16T15:08:26.297Z,5.70
2017-09-16T15:10:54.601Z,2.93
2017-09-16T15:13:22.914Z,4.70
2017-09-16T15:15:51.209Z,7.37
2017-09-16T15:18:19.535Z,5.13
2017-09-16T15:20:47.837Z,7.90
2017-09-16T15:23:16.921Z,7.00
2017-09-16T15:25:45.995Z,6.13
2017-09-16T15:28:14.306Z,13.47
2017-09-16T15:30:43.398Z,7.23
2017-09-16T15:33:12.493Z,18.93
2017-09-16T15:35:41.557Z,9.40
2017-09-16T15:38:09.854Z,7.27
2017-09-16T15:40:38.175Z,167.07
2017-09-16T15:43:06.494Z,93.47
2017-09-16T15:45:34.807Z,74.60
2017-09-16T15:48:03.109Z,64.77
2017-09-16T15:50:31.421Z,108.23
2017-09-16T15:52:59.741Z,56.87
2017-09-16T15:55:28.054Z,6.00
2017-09-16T15:57:56.354Z,10.50
2017-09-16T16:00:24.677Z,8.23
2017-09-16T16:02:52.986Z,120.27
2017-09-16T16:05:21.311Z,16.50
2017-09-16T16:07:50.381Z,6.77
2017-09-16T16:10:18.685Z,6.30
2017-09-16T16:12:47.777Z,52.80
2017-09-16T16:15:16.846Z,6.87
2017-09-16T16:17:45.170Z,6.57
2017-09-16T16:20:13.476Z,2.90
2017-09-16T16:22:41.786Z,5.20
2017-09-16T16:25:10.081Z,3.50
2017-09-16T16:27:38.414Z,4.60
2017-09-16T16:30:07.489Z,3.73
2017-09-16T16:32:35.791Z,4.23
2017-09-16T16:35:04.103Z,4.40
2017-09-16T16:37:33.182Z,5.57
2017-09-16T16:40:01.494Z,5.70
2017-09-16T16:42:29.798Z,11.87
2017-09-16T16:44:58.105Z,7.33
2017-09-16T16:47:26.417Z,11.00
2017-09-16T16:49:55.509Z,4.63
2017-09-16T16:52:24.581Z,9.93
2017-09-16T16:54:52.902Z,7.30
2017-09-16T16:57:21.215Z,6.67
2017-09-16T16:59:49.526Z,5.23
2017-09-16T17:02:17.836Z,6.17
2017-09-16T17:04:46.145Z,7.20
2017-09-16T17:07:14.460Z,12.13
2017-09-16T17:09:43.533Z,4.50
2017-09-16T17:12:11.841Z,5.40
2017-09-16T17:14:40.907Z,8.10
2017-09-16T17:17:09.227Z,5.10
2017-09-16T17:19:37.541Z,5.80
2017-09-16T17:22:05.862Z,8.80
2017-09-16T17:24:34.934Z,9.43
2017-09-16T17:27:03.238Z,4.90
2017-09-16T17:29:32.335Z,4.43
2017-09-16T17:32:01.405Z,4.50
2017-09-16T17:34:29.713Z,8.73
2017-09-16T17:36:59.455Z,6.30
2017-09-16T17:39:27.778Z,5.57
2017-09-16T17:41:56.070Z,6.70
2017-09-16T17:44:25.149Z,5.80
2017-09-16T17:46:53.453Z,5.60
2017-09-16T17:49:22.525Z,5.23
2017-09-16T17:51:50.826Z,8.63
2017-09-16T17:54:19.157Z,5.17
2017-09-16T17:56:47.466Z,7.67
2017-09-16T17:59:16.537Z,10.00
2017-09-16T18:01:44.875Z,10.83
2017-09-16T18:04:13.199Z,6.23
2017-09-16T18:06:42.343Z,6.43
2017-09-16T18:09:10.638Z,7.33
2017-09-16T18:11:38.950Z,11.80
2017-09-16T18:14:07.254Z,14.37
2017-09-16T18:16:36.329Z,6.17
2017-09-16T18:19:04.627Z,6.30
2017-09-16T18:21:33.698Z,4.73
2017-09-16T18:24:02.003Z,6.83
2017-09-16T18:26:30.330Z,5.73
2017-09-16T18:28:58.630Z,6.30
2017-09-16T18:31:26.929Z,5.80
2017-09-16T18:33:56.010Z,7.67
2017-09-16T18:36:25.073Z,6.97
2017-09-16T18:38:53.390Z,6.17
2017-09-16T18:41:22.468Z,8.43
2017-09-16T18:43:50.786Z,7.60
2017-09-16T18:46:19.099Z,6.67
2017-09-16T18:48:47.412Z,9.33
2017-09-16T18:51:16.484Z,8.50
2017-09-16T18:53:44.817Z,6.30
2017-09-16T18:56:13.127Z,7.83
2017-09-16T18:58:42.194Z,7.40
2017-09-16T19:01:10.511Z,8.53
2017-09-16T19:03:38.813Z,8.50
2017-09-16T19:06:07.890Z,7.10
2017-09-16T19:08:36.190Z,8.40
2017-09-16T19:11:05.266Z,11.13
2017-09-16T19:13:33.572Z,9.47
2017-09-16T19:16:01.885Z,11.70
2017-09-16T19:18:30.185Z,9.93
2017-09-16T19:20:58.500Z,12.87
2017-09-16T19:23:27.569Z,9.97
2017-09-16T19:25:55.905Z,9.87
2017-09-16T19:28:24.214Z,17.03
2017-09-16T19:30:52.558Z,10.40
2017-09-16T19:33:20.954Z,12.37
2017-09-16T19:35:49.258Z,13.73
2017-09-16T19:38:17.585Z,10.33
2017-09-16T19:40:45.910Z,9.90
2017-09-16T19:43:14.240Z,9.00
2017-09-16T19:45:42.549Z,13.13
2017-09-16T19:48:10.870Z,12.10
2017-09-16T19:50:39.973Z,10.27
2017-09-16T19:53:08.306Z,8.10
2017-09-16T19:55:36.614Z,12.47
2017-09-16T19:58:05.687Z,14.20
2017-09-16T20:00:34.577Z,22.23
2017-09-16T20:03:02.883Z,38.03
2017-09-16T20:05:31.962Z,41.60
2017-09-16T20:08:01.029Z,43.43
2017-09-16T20:10:29.354Z,47.23
2017-09-16T20:12:57.661Z,46.27
2017-09-16T20:15:25.978Z,49.33
2017-09-16T20:17:54.286Z,56.53
2017-09-16T20:20:22.619Z,48.90
2017-09-16T20:22:50.925Z,47.77
2017-09-16T20:25:19.242Z,53.43
2017-09-16T20:27:47.549Z,57.70
2017-09-16T20:30:15.896Z,45.30
2017-09-16T20:32:44.214Z,50.00
2017-09-16T20:35:12.518Z,41.10
2017-09-16T20:37:41.601Z,44.47
2017-09-16T20:40:09.921Z,49.70
2017-09-16T20:42:38.250Z,40.93
2017-09-16T20:45:06.568Z,42.33
2017-09-16T20:47:34.882Z,49.77
2017-09-16T20:50:03.201Z,48.33
2017-09-16T20:52:32.294Z,46.60
2017-09-16T20:55:01.369Z,49.30
2017-09-16T20:57:29.713Z,43.23
2017-09-16T20:59:58.031Z,43.83
2017-09-16T21:02:26.351Z,38.57
2017-09-16T21:04:54.665Z,41.37
2017-09-16T21:07:23.004Z,40.90
2017-09-16T21:09:51.309Z,43.10
2017-09-16T21:12:20.382Z,30.33
2017-09-16T21:14:48.694Z,37.27
2017-09-16T21:17:16.993Z,30.07
2017-09-16T21:19:45.311Z,34.37
2017-09-16T21:22:13.622Z,30.83
2017-09-16T21:24:41.938Z,33.93
2017-09-16T21:27:10.259Z,27.87
2017-09-16T21:29:38.574Z,31.50
2017-09-16T21:32:06.891Z,36.70
2017-09-16T21:34:35.232Z,39.80
2017-09-16T21:37:04.313Z,30.53
2017-09-16T21:39:32.626Z,26.57
2017-09-16T21:42:01.725Z,25.43
2017-09-16T21:44:30.034Z,20.40
2017-09-16T21:46:58.546Z,25.40
2017-09-16T21:49:26.858Z,24.33
2017-09-16T21:51:55.199Z,24.20
2017-09-16T21:54:23.510Z,19.60
2017-09-16T21:56:52.599Z,26.37
2017-09-16T21:59:21.667Z,18.20
2017-09-16T22:01:49.988Z,18.57
2017-09-16T22:04:18.295Z,21.73
2017-09-16T22:06:46.599Z,19.80
2017-09-16T22:09:14.919Z,19.50
2017-09-16T22:11:43.217Z,18.47
2017-09-16T22:14:11.532Z,18.73
2017-09-16T22:16:39.833Z,24.30
2017-09-16T22:19:08.150Z,17.20
2017-09-16T22:21:36.454Z,19.90
2017-09-16T22:24:05.590Z,17.97
2017-09-16T22:26:34.650Z,18.27
2017-09-16T22:29:02.993Z,33.27
2017-09-16T22:31:31.295Z,23.20
2017-09-16T22:33:59.613Z,20.93
2017-09-16T22:36:28.686Z,24.57
2017-09-16T22:38:56.986Z,20.27
2017-09-16T22:41:26.063Z,18.93
2017-09-16T22:43:54.362Z,14.93
2017-09-16T22:46:22.686Z,15.17
2017-09-16T22:48:51.002Z,17.00
2017-09-16T22:51:20.124Z,20.30
2017-09-16T22:53:49.170Z,15.27
2017-09-16T22:56:17.494Z,17.60
2017-09-16T22:58:45.808Z,17.97
2017-09-16T23:01:14.148Z,22.27
2017-09-16T23:03:42.445Z,19.47
2017-09-16T23:06:10.751Z,21.03
2017-09-16T23:08:39.062Z,20.03
2017-09-16T23:11:08.126Z,20.10
2017-09-16T23:13:36.446Z,20.97
2017-09-16T23:16:04.758Z,21.67
2017-09-16T23:18:33.123Z,22.73
2017-09-16T23:21:01.419Z,22.33
2017-09-16T23:23:29.733Z,21.40
2017-09-16T23:25:58.812Z,25.07
2017-09-16T23:28:27.117Z,23.33
2017-09-16T23:30:56.182Z,23.37
2017-09-16T23:33:24.516Z,22.03
2017-09-16T23:35:52.805Z,20.30
2017-09-16T23:38:21.105Z,19.73
2017-09-16T23:40:49.409Z,23.00
2017-09-16T23:43:18.474Z,21.47
2017-09-16T23:45:46.785Z,20.47
2017-09-16T23:48:15.850Z,20.67
2017-09-16T23:50:44.162Z,21.30
2017-09-16T23:53:13.222Z,24.07
2017-09-16T23:55:41.531Z,20.97
2017-09-16T23:58:10.606Z,20.83
